Time;durP1;ratioP1;P1;durP2;ratioP2;P2;SDS_P1;SDS_P2;PMS_P1;PMS_P2;Temp;Humidity;BMP_temperature;BMP_pressure;BME280_temperature;BME280_humidity;BME280_pressure;Samples;Min_cycle;Max_cycle;Signal;HPM_P1;HPM_P2
2023/03/20 00:02:21;;;;;;;0.20;0.20;;;;;;;10.72;100.00;100627.19;5055759;28;20021;-64
2023/03/20 00:04:49;;;;;;;0.20;0.20;;;;;;;10.70;100.00;100618.38;5055689;28;20028;-64
2023/03/20 00:07:15;;;;;;;0.20;0.20;;;;;;;10.77;100.00;100621.38;5057292;28;20108;-63
2023/03/20 00:09:43;;;;;;;0.20;0.20;;;;;;;10.75;100.00;100612.56;5056287;28;20127;-64
2023/03/20 00:12:21;;;;;;;0.20;0.20;;;;;;;10.70;100.00;100615.59;5056473;28;20430;-64
2023/03/20 00:14:51;;;;;;;0.20;0.20;;;;;;;10.73;100.00;100601.78;5055621;28;20120;-64
2023/03/20 00:17:19;;;;;;;0.20;0.20;;;;;;;10.74;100.00;100603.38;5055323;28;20035;-63
2023/03/20 00:19:45;;;;;;;0.20;0.20;;;;;;;10.72;100.00;100599.34;5057070;28;20082;-64
2023/03/20 00:22:14;;;;;;;0.20;0.20;;;;;;;10.73;100.00;100600.97;5056046;28;20254;-63
2023/03/20 00:24:40;;;;;;;0.20;0.20;;;;;;;10.71;100.00;100592.19;5055566;28;20029;-65
2023/03/20 00:27:12;;;;;;;0.20;0.20;;;;;;;10.77;100.00;100593.53;5058016;28;20032;-65
2023/03/20 00:29:37;;;;;;;0.20;0.20;;;;;;;10.89;100.00;100596.25;5059669;28;20034;-67
2023/03/20 00:32:10;;;;;;;0.20;0.20;;;;;;;10.89;100.00;100592.66;5057642;28;20399;-70
2023/03/20 00:34:38;;;;;;;0.20;0.20;;;;;;;10.79;100.00;100588.41;5057286;28;20048;-63
2023/03/20 00:37:15;;;;;;;0.20;0.20;;;;;;;10.75;100.00;100587.50;5055700;28;20032;-64
2023/03/20 00:39:43;;;;;;;0.20;0.20;;;;;;;10.78;100.00;100581.25;5055128;28;20029;-63
2023/03/20 00:42:19;;;;;;;0.30;0.30;;;;;;;10.81;100.00;100585.28;5055060;28;20040;-63
2023/03/20 00:44:52;;;;;;;0.20;0.20;;;;;;;10.76;100.00;100578.00;5054792;28;20475;-63
2023/03/20 00:47:23;;;;;;;0.20;0.20;;;;;;;10.80;100.00;100578.09;5056562;28;20079;-62
2023/03/20 00:49:54;;;;;;;0.20;0.20;;;;;;;10.85;100.00;100580.63;5055245;28;20452;-63
2023/03/20 00:52:23;;;;;;;0.20;0.20;;;;;;;10.86;100.00;100573.88;5055173;28;20033;-63
2023/03/20 00:54:54;;;;;;;0.20;0.20;;;;;;;10.88;100.00;100564.03;5054966;28;20035;-64
2023/03/20 00:57:35;;;;;;;0.22;0.22;;;;;;;10.92;100.00;100559.38;5054770;28;20021;-63
2023/03/20 01:00:00;;;;;;;0.20;0.20;;;;;;;11.03;100.00;100559.66;5054559;28;20041;-64
2023/03/20 01:02:27;;;;;;;0.20;0.20;;;;;;;11.00;100.00;100563.97;5055212;28;20414;-64
2023/03/20 01:04:53;;;;;;;0.20;0.20;;;;;;;10.98;100.00;100557.13;5054510;28;20029;-63
2023/03/20 01:07:21;;;;;;;0.20;0.20;;;;;;;10.92;100.00;100548.25;5054275;28;20074;-63
2023/03/20 01:09:47;;;;;;;0.20;0.20;;;;;;;10.93;100.00;100555.41;5055134;28;20052;-63
2023/03/20 01:12:17;;;;;;;0.30;0.30;;;;;;;10.96;100.00;100548.31;5055035;28;20079;-62
2023/03/20 01:14:48;;;;;;;0.20;0.20;;;;;;;10.93;100.00;100541.50;5054410;28;20040;-63
2023/03/20 01:17:19;;;;;;;0.20;0.20;;;;;;;10.94;100.00;100537.53;5056530;28;20037;-63
2023/03/20 01:19:48;;;;;;;0.20;0.20;;;;;;;10.88;100.00;100541.75;5055373;28;20029;-62
2023/03/20 01:22:19;;;;;;;0.20;0.20;;;;;;;10.93;100.00;100549.84;5054985;28;20028;-63
2023/03/20 01:24:47;;;;;;;0.20;0.20;;;;;;;10.95;100.00;100553.06;5054527;28;20371;-63
2023/03/20 01:27:15;;;;;;;0.20;0.20;;;;;;;10.95;100.00;100553.06;5054217;28;20029;-63
2023/03/20 01:29:46;;;;;;;0.20;0.20;;;;;;;10.87;100.00;100545.72;5054505;28;20068;-63
2023/03/20 01:32:15;;;;;;;0.20;0.20;;;;;;;10.90;100.00;100535.81;5055336;28;20028;-63
2023/03/20 01:34:43;;;;;;;0.20;0.20;;;;;;;10.92;100.00;100542.66;5054851;28;20366;-62
2023/03/20 01:37:13;;;;;;;0.20;0.20;;;;;;;10.77;100.00;100523.97;5054000;28;20055;-63
2023/03/20 01:39:39;;;;;;;0.20;0.20;;;;;;;10.79;100.00;100529.16;5053975;28;20028;-62
2023/03/20 01:42:07;;;;;;;0.20;0.20;;;;;;;10.82;100.00;100537.63;5054456;28;20155;-63
2023/03/20 01:44:39;;;;;;;0.20;0.20;;;;;;;10.89;100.00;100543.38;5053779;28;20112;-63
2023/03/20 01:47:17;;;;;;;0.20;0.20;;;;;;;10.83;100.00;100542.00;5053831;28;20025;-62
2023/03/20 01:50:11;;;;;;;0.20;0.20;;;;;;;10.74;100.00;100531.03;5053997;28;20091;-63
2023/03/20 01:52:39;;;;;;;0.20;0.20;;;;;;;10.73;100.00;100536.97;5053706;28;20055;-62
2023/03/20 01:55:08;;;;;;;0.20;0.20;;;;;;;10.74;100.00;100525.47;5053911;28;20024;-63
2023/03/20 01:57:37;;;;;;;0.28;0.28;;;;;;;10.64;100.00;100525.16;5053686;28;20056;-63
2023/03/20 02:00:10;;;;;;;0.20;0.20;;;;;;;10.74;100.00;100525.47;5053145;28;20057;-63
2023/03/20 02:02:38;;;;;;;;;;;;;;;10.64;100.00;100519.59;5053877;28;20095;-63
2023/03/20 02:05:09;;;;;;;0.20;0.20;;;;;;;10.60;100.00;100513.97;5070088;28;19963;-63
2023/03/20 02:07:40;;;;;;;0.30;0.30;;;;;;;10.51;100.00;100515.28;5053063;28;20029;-63
2023/03/20 02:10:15;;;;;;;0.25;0.25;;;;;;;10.45;100.00;100511.94;5053657;28;20025;-63
2023/03/20 02:12:43;;;;;;;0.20;0.20;;;;;;;10.45;100.00;100507.19;5053297;28;20033;-63
2023/03/20 02:15:11;;;;;;;0.22;0.22;;;;;;;10.40;100.00;100501.88;5053564;28;20025;-63
2023/03/20 02:17:39;;;;;;;0.20;0.20;;;;;;;10.45;100.00;100507.19;5055122;28;20029;-62
2023/03/20 02:20:40;;;;;;;0.20;0.20;;;;;;;10.36;100.00;100502.91;5053480;28;20037;-62
2023/03/20 02:23:27;;;;;;;0.20;0.20;;;;;;;10.29;100.00;100497.97;5053310;28;20053;-63
2023/03/20 02:26:18;;;;;;;0.30;0.30;;;;;;;10.17;100.00;100501.59;5053431;28;20031;-63
2023/03/20 02:29:05;;;;;;;0.20;0.20;;;;;;;10.17;100.00;100496.00;5015911;28;20091;-62
2023/03/20 02:32:03;;;;;;;0.20;0.20;;;;;;;10.08;100.00;100500.09;5053005;28;20120;-62
2023/03/20 02:34:37;;;;;;;0.30;0.30;;;;;;;10.07;100.00;100501.25;5020739;28;20041;-64
2023/03/20 02:37:31;;;;;;;0.20;0.20;;;;;;;10.12;100.00;100514.88;5053424;28;20033;-62
2023/03/20 02:40:07;;;;;;;0.30;0.30;;;;;;;10.14;100.00;100507.03;5053138;28;20036;-63
2023/03/20 02:42:57;;;;;;;0.20;0.20;;;;;;;10.11;100.00;100493.81;5052789;28;20033;-63
2023/03/20 02:45:42;;;;;;;0.30;0.30;;;;;;;10.07;100.00;100501.25;5052696;28;20033;-62
2023/03/20 02:48:50;;;;;;;0.30;0.30;;;;;;;10.11;100.00;100502.16;5052763;28;20472;-63
2023/03/20 02:51:26;;;;;;;0.30;0.30;;;;;;;10.22;100.00;100497.72;5052615;28;20480;-63
2023/03/20 02:54:22;;;;;;;0.20;0.20;;;;;;;10.34;100.00;100478.25;5052920;28;20029;-64
2023/03/20 02:57:11;;;;;;;0.20;0.20;;;;;;;10.20;100.00;100477.81;5053356;28;20486;-63
2023/03/20 03:00:12;;;;;;;0.20;0.20;;;;;;;10.19;100.00;100476.19;5062609;28;20522;-62
2023/03/20 03:02:44;;;;;;;0.20;0.20;;;;;;;10.17;100.00;100473.78;5063519;28;20391;-63
2023/03/20 03:05:17;;;;;;;0.20;0.20;;;;;;;10.23;100.00;100477.94;5072598;28;20475;-63
2023/03/20 03:07:47;;;;;;;0.20;0.20;;;;;;;10.20;100.00;100480.59;5074087;28;20028;-62
2023/03/20 03:10:28;;;;;;;0.20;0.20;;;;;;;10.11;100.00;100479.91;5072812;28;20467;-66
2023/03/20 03:12:59;;;;;;;0.20;0.20;;;;;;;10.09;100.00;100487.81;5072993;28;20036;-63
2023/03/20 03:15:41;;;;;;;0.20;0.20;;;;;;;10.08;100.00;100488.97;5072448;28;20463;-63
2023/03/20 03:18:16;;;;;;;0.20;0.20;;;;;;;10.10;100.00;100494.97;5072579;28;20056;-63
2023/03/20 03:20:44;;;;;;;0.20;0.20;;;;;;;10.09;100.00;100498.94;5072397;28;20475;-63
2023/03/20 03:23:21;;;;;;;0.30;0.30;;;;;;;10.10;100.00;100500.53;5072423;28;20107;-63
2023/03/20 03:25:48;;;;;;;0.20;0.20;;;;;;;10.11;100.00;100508.53;5072780;28;20029;-64
2023/03/20 03:28:36;;;;;;;0.20;0.20;;;;;;;10.09;100.00;100504.50;5074920;28;20029;-63
2023/03/20 03:31:04;;;;;;;0.20;0.20;;;;;;;10.06;100.00;100494.06;5074440;28;20036;-63
2023/03/20 03:33:31;;;;;;;0.20;0.20;;;;;;;10.05;100.00;100495.22;5072716;28;20020;-63
2023/03/20 03:36:19;;;;;;;0.20;0.20;;;;;;;10.03;100.00;100505.91;5073121;28;20037;-64
2023/03/20 03:38:56;;;;;;;0.20;0.20;;;;;;;10.01;100.00;100497.88;5072942;28;20035;-63
2023/03/20 03:41:37;;;;;;;0.20;0.20;;;;;;;10.00;100.00;100496.28;5072759;28;20041;-64
2023/03/20 03:44:22;;;;;;;0.20;0.20;;;;;;;10.17;100.00;100514.66;5071786;28;20115;-63
2023/03/20 03:47:05;;;;;;;0.20;0.20;;;;;;;10.21;100.00;100519.16;5072216;28;20032;-63
2023/03/20 03:49:38;;;;;;;0.20;0.20;;;;;;;10.18;100.00;100513.50;5073832;28;20107;-63
2023/03/20 03:52:10;;;;;;;0.30;0.30;;;;;;;10.06;100.00;100502.41;5072739;28;20087;-63
2023/03/20 03:54:46;;;;;;;0.20;0.20;;;;;;;10.05;100.00;100503.56;5072110;28;20286;-63
2023/03/20 03:57:19;;;;;;;0.20;0.20;;;;;;;10.04;100.00;100504.72;5072321;28;20038;-63
2023/03/20 03:59:49;;;;;;;0.20;0.20;;;;;;;10.05;100.00;100496.03;5071929;28;20044;-63
2023/03/20 04:02:18;;;;;;;0.20;0.20;;;;;;;9.98;100.00;100493.06;5071999;28;20029;-63
2023/03/20 04:04:49;;;;;;;0.20;0.20;;;;;;;9.93;100.00;100479.41;5072442;28;20080;-63
2023/03/20 04:07:14;;;;;;;0.20;0.20;;;;;;;9.94;100.00;100475.44;5072205;28;20029;-63
2023/03/20 04:09:43;;;;;;;0.20;0.20;;;;;;;10.00;100.00;100473.22;5072510;28;20353;-63
2023/03/20 04:12:35;;;;;;;0.20;0.20;;;;;;;10.02;100.00;100460.63;5072161;28;20039;-62
2023/03/20 04:15:05;;;;;;;0.28;0.28;;;;;;;9.84;100.00;100479.53;5072436;28;20522;-63
2023/03/20 04:17:31;;;;;;;0.20;0.20;;;;;;;9.84;100.00;100493.41;5071865;28;20032;-62
2023/03/20 04:19:57;;;;;;;0.20;0.20;;;;;;;9.79;100.00;100496.44;5071783;28;20027;-63
2023/03/20 04:22:25;;;;;;;0.20;0.20;;;;;;;9.79;100.00;100506.75;5071766;28;20024;-63
2023/03/20 04:24:51;;;;;;;0.20;0.20;;;;;;;9.73;100.00;100486.72;5072001;28;20082;-62
2023/03/20 04:27:20;;;;;;;0.22;0.22;;;;;;;9.65;100.00;100496.81;5071784;28;20056;-62
2023/03/20 04:29:48;;;;;;;0.30;0.30;;;;;;;9.77;100.00;100482.09;5073608;28;20029;-62
2023/03/20 04:32:18;;;;;;;0.20;0.20;;;;;;;9.60;100.00;100449.81;5075543;28;20029;-63
2023/03/20 04:34:46;;;;;;;0.20;0.20;;;;;;;9.77;100.00;100482.09;5075194;28;20039;-63
2023/03/20 04:37:12;;;;;;;0.20;0.20;;;;;;;9.92;100.00;100481.38;5075453;28;20036;-63
2023/03/20 04:39:41;;;;;;;0.30;0.30;;;;;;;9.93;100.00;100491.31;5075111;28;20060;-63
2023/03/20 04:42:12;;;;;;;0.20;0.20;;;;;;;9.92;100.00;100488.91;5075072;28;20032;-63
2023/03/20 04:44:40;;;;;;;0.20;0.20;;;;;;;9.88;100.00;100479.63;5075506;28;20079;-63
2023/03/20 04:47:08;;;;;;;0.20;0.20;;;;;;;10.00;100.00;100464.88;5076070;28;20070;-63
2023/03/20 04:49:36;;;;;;;0.20;0.20;;;;;;;9.93;100.00;100452.41;5074920;28;20128;-62
2023/03/20 04:52:04;;;;;;;0.20;0.20;;;;;;;10.03;100.00;100461.41;5075265;28;20036;-63
2023/03/20 04:54:32;;;;;;;0.30;0.30;;;;;;;10.02;100.00;100454.25;5074881;28;20037;-63
2023/03/20 04:57:06;;;;;;;0.30;0.30;;;;;;;9.88;100.00;100455.44;5074811;28;20028;-62
2023/03/20 04:59:34;;;;;;;0.20;0.20;;;;;;;10.04;100.00;100474.16;5065350;28;20514;-63
2023/03/20 05:02:05;;;;;;;0.20;0.20;;;;;;;10.00;100.00;100470.44;5054716;28;20163;-63
2023/03/20 05:04:32;;;;;;;0.20;0.20;;;;;;;10.00;100.00;100468.47;5054553;28;20090;-64
2023/03/20 05:07:00;;;;;;;0.20;0.20;;;;;;;9.94;100.00;100464.31;5054608;28;20025;-63
2023/03/20 05:09:28;;;;;;;0.20;0.20;;;;;;;10.06;100.00;100471.81;5054850;28;20084;-63
2023/03/20 05:11:54;;;;;;;0.20;0.20;;;;;;;10.11;100.00;100471.56;5054850;28;20024;-63
2023/03/20 05:14:22;;;;;;;0.20;0.20;;;;;;;10.01;100.00;100472.06;5054449;28;20387;-64
2023/03/20 05:16:49;;;;;;;0.20;0.20;;;;;;;9.95;100.00;100477.88;5054383;28;20115;-63
2023/03/20 05:19:17;;;;;;;0.20;0.20;;;;;;;10.00;100.00;100484.34;5054366;28;20075;-63
2023/03/20 05:21:48;;;;;;;0.20;0.20;;;;;;;10.00;100.00;100485.16;5054367;28;20067;-63
2023/03/20 05:24:22;;;;;;;0.20;0.20;;;;;;;10.02;100.00;100482.84;5054193;28;20033;-63
2023/03/20 05:26:48;;;;;;;0.20;0.20;;;;;;;10.10;100.00;100483.88;5066418;28;20434;-63
2023/03/20 05:29:14;;;;;;;0.20;0.20;;;;;;;10.13;100.00;100483.16;5054176;28;20040;-64
2023/03/20 05:31:40;;;;;;;0.25;0.25;;;;;;;10.29;100.00;100464.59;5054123;28;20033;-63
2023/03/20 05:34:05;;;;;;;0.20;0.20;;;;;;;10.35;100.00;100463.19;5054686;28;20079;-63
2023/03/20 05:36:31;;;;;;;0.20;0.20;;;;;;;10.36;100.00;100478.69;5054021;28;20057;-63
2023/03/20 05:38:59;;;;;;;0.20;0.20;;;;;;;10.47;100.00;100479.00;5053671;28;20065;-63
2023/03/20 05:41:25;;;;;;;0.20;0.20;;;;;;;10.47;100.00;100479.81;5053650;28;20489;-64
2023/03/20 05:43:53;;;;;;;0.30;0.30;;;;;;;10.52;100.00;100489.88;5053873;28;20460;-63
2023/03/20 05:46:21;;;;;;;0.20;0.20;;;;;;;10.65;100.00;100490.59;5053504;28;20091;-64
2023/03/20 05:48:49;;;;;;;0.30;0.30;;;;;;;10.84;100.00;100478.81;5055079;28;20033;-64
2023/03/20 05:51:15;;;;;;;0.20;0.20;;;;;;;11.05;100.00;100490.50;5054300;28;20028;-63
2023/03/20 05:53:42;;;;;;;0.20;0.20;;;;;;;11.25;100.00;100500.56;5054307;28;20052;-63
2023/03/20 05:56:10;;;;;;;0.20;0.20;;;;;;;11.44;100.00;100490.66;5053918;28;20400;-64
2023/03/20 05:58:38;;;;;;;0.20;0.20;;;;;;;11.76;100.00;100502.56;5056827;28;20069;-63
2023/03/20 06:01:09;;;;;;;0.20;0.20;;;;;;;11.94;100.00;100498.25;5093760;28;20024;-64
2023/03/20 06:03:36;;;;;;;0.20;0.20;;;;;;;12.23;100.00;100499.66;5094226;28;20020;-63
2023/03/20 06:06:07;;;;;;;0.20;0.20;;;;;;;12.58;97.82;100498.78;5076772;28;20482;-63
2023/03/20 06:08:37;;;;;;;0.20;0.20;;;;;;;12.75;96.07;100508.66;5076717;28;20032;-63
2023/03/20 06:11:06;;;;;;;0.30;0.30;;;;;;;12.99;95.71;100504.72;5076987;28;20043;-63
2023/03/20 06:13:34;;;;;;;0.20;0.20;;;;;;;13.15;94.76;100510.19;5076738;28;20517;-64
2023/03/20 06:16:02;;;;;;;0.20;0.20;;;;;;;13.19;94.55;100506.28;5077069;28;20031;-64
2023/03/20 06:18:28;;;;;;;0.20;0.20;;;;;;;13.22;90.61;100488.00;5077526;28;20181;-63
2023/03/20 06:20:57;;;;;;;0.20;0.20;;;;;;;13.10;90.86;100487.00;5078211;28;20480;-64
2023/03/20 06:23:25;;;;;;;0.20;0.20;;;;;;;12.87;91.69;100488.94;5079511;28;20024;-67
2023/03/20 06:25:53;;;;;;;0.20;0.20;;;;;;;12.88;93.23;100479.38;5080511;28;20035;-65
2023/03/20 06:28:24;;;;;;;0.20;0.20;;;;;;;12.91;93.03;100478.66;5077263;28;20121;-63
2023/03/20 06:30:53;;;;;;;0.20;0.20;;;;;;;12.89;94.65;100472.66;5076682;28;20056;-64
2023/03/20 06:33:21;;;;;;;0.20;0.20;;;;;;;12.82;94.68;100470.50;5077167;28;20027;-63
2023/03/20 06:35:47;;;;;;;0.20;0.20;;;;;;;12.85;95.63;100474.56;5076249;28;20115;-64
2023/03/20 06:38:15;;;;;;;0.20;0.20;;;;;;;12.94;93.88;100482.69;5076923;28;20071;-64
2023/03/20 06:40:41;;;;;;;0.20;0.20;;;;;;;13.18;96.03;100476.72;5076642;28;20102;-65
2023/03/20 06:43:11;;;;;;;0.20;0.20;;;;;;;13.50;94.50;100477.28;5076620;28;20031;-64
2023/03/20 06:45:37;;;;;;;0.20;0.20;;;;;;;13.72;92.17;100483.19;5076501;28;20378;-63
2023/03/20 06:48:06;;;;;;;0.20;0.20;;;;;;;14.01;88.17;100476.84;5076488;28;20122;-63
2023/03/20 06:50:34;;;;;;;0.20;0.20;;;;;;;14.26;87.57;100474.34;5076584;28;20036;-63
2023/03/20 06:53:00;;;;;;;0.20;0.20;;;;;;;14.36;85.35;100478.47;5075389;28;20089;-63
2023/03/20 06:55:30;;;;;;;0.20;0.20;;;;;;;14.70;83.64;100472.88;5075921;28;20024;-63
2023/03/20 06:57:56;;;;;;;0.20;0.20;;;;;;;14.69;83.49;100480.47;5076100;28;20035;-64
2023/03/20 07:00:24;;;;;;;0.20;0.20;;;;;;;15.17;83.27;100489.75;5075342;28;20055;-63
2023/03/20 07:02:55;;;;;;;0.20;0.20;;;;;;;15.36;80.52;100490.72;5075661;28;20063;-63
2023/03/20 07:05:23;;;;;;;0.20;0.20;;;;;;;15.75;79.86;100495.84;5076306;28;20048;-63
2023/03/20 07:07:49;;;;;;;0.20;0.20;;;;;;;15.53;77.88;100504.06;5074298;28;20114;-63
2023/03/20 07:10:16;;;;;;;0.20;0.20;;;;;;;15.52;79.04;100477.22;5074577;28;20028;-64
2023/03/20 07:12:44;;;;;;;0.20;0.20;;;;;;;15.67;79.36;100492.19;5094047;28;20234;-65
2023/03/20 07:15:12;;;;;;;0.20;0.20;;;;;;;16.35;76.98;100492.56;5075752;28;20044;-64
2023/03/20 07:17:38;;;;;;;0.20;0.20;;;;;;;16.97;72.88;100492.38;5075490;28;20068;-65
2023/03/20 07:20:04;;;;;;;0.20;0.20;;;;;;;16.93;73.26;100491.56;5075800;28;20138;-64
2023/03/20 07:22:33;;;;;;;0.20;0.20;;;;;;;16.76;74.30;100499.56;5076106;28;20035;-64
2023/03/20 07:24:58;;;;;;;0.20;0.20;;;;;;;17.31;70.89;100492.00;5092344;28;20474;-65
2023/03/20 07:27:24;;;;;;;0.20;0.20;;;;;;;18.09;66.83;100510.84;5075451;28;20032;-61
2023/03/20 07:29:55;;;;;;;0.30;0.30;;;;;;;17.71;64.63;100502.84;5092172;28;20089;-61
2023/03/20 07:32:20;;;;;;;0.20;0.20;;;;;;;18.10;65.98;100499.19;5075385;28;20036;-63
2023/03/20 07:34:49;;;;;;;0.20;0.20;;;;;;;18.43;61.37;100506.34;5075286;28;20024;-63
2023/03/20 07:37:16;;;;;;;0.20;0.20;;;;;;;18.81;60.65;100496.09;5093690;28;20071;-62
2023/03/20 07:39:41;;;;;;;0.20;0.20;;;;;;;19.12;60.96;100504.75;5092028;28;20027;-62
2023/03/20 07:42:07;;;;;;;0.20;0.20;;;;;;;19.10;59.24;100502.34;5075207;28;20032;-62
2023/03/20 07:44:32;;;;;;;0.30;0.30;;;;;;;18.80;60.31;100500.13;5075135;28;20028;-62
2023/03/20 07:46:58;;;;;;;0.20;0.20;;;;;;;18.66;58.98;100505.81;5075132;28;20035;-61
2023/03/20 07:49:26;;;;;;;0.20;0.20;;;;;;;18.29;62.24;100512.00;5075367;28;20035;-62
2023/03/20 07:51:53;;;;;;;0.20;0.20;;;;;;;17.93;60.72;100511.28;5075439;28;20378;-61
2023/03/20 07:54:22;;;;;;;0.20;0.20;;;;;;;17.37;65.12;100513.72;5075420;28;20133;-62
2023/03/20 07:56:50;;;;;;;0.20;0.20;;;;;;;17.07;63.10;100522.53;5093213;28;20093;-62
2023/03/20 07:59:16;;;;;;;0.20;0.20;;;;;;;17.51;62.54;100521.34;5064500;28;20045;-63
2023/03/20 08:01:47;;;;;;;0.20;0.20;;;;;;;17.06;64.71;100518.09;5051913;28;20045;-61
2023/03/20 08:04:18;;;;;;;0.20;0.20;;;;;;;16.53;66.42;100510.31;5054382;28;20017;-62
2023/03/20 08:06:46;;;;;;;0.20;0.20;;;;;;;16.74;65.62;100518.84;5055969;28;20112;-64
2023/03/20 08:09:15;;;;;;;0.20;0.20;;;;;;;16.27;67.09;100522.63;5055313;28;20098;-62
2023/03/20 08:11:43;;;;;;;0.20;0.20;;;;;;;16.29;65.94;100511.78;5055458;28;20426;-64
2023/03/20 08:14:09;;;;;;;0.20;0.20;;;;;;;16.53;65.98;100507.50;5055318;28;20082;-64
2023/03/20 08:16:37;;;;;;;0.20;0.20;;;;;;;16.56;66.43;100506.69;5056019;28;20037;-64
2023/03/20 08:19:08;;;;;;;0.20;0.20;;;;;;;16.59;66.06;100508.72;5056203;28;20391;-63
2023/03/20 08:21:39;;;;;;;0.20;0.20;;;;;;;16.68;65.74;100503.53;5055236;28;20471;-64
2023/03/20 08:24:07;;;;;;;0.20;0.20;;;;;;;15.98;67.56;100507.63;5055030;28;20025;-62
2023/03/20 08:26:35;;;;;;;0.20;0.20;;;;;;;16.45;65.81;100517.88;5055152;28;20033;-63
2023/03/20 08:29:06;;;;;;;0.20;0.20;;;;;;;16.12;66.26;100510.50;5055932;28;20486;-63
2023/03/20 08:31:31;;;;;;;0.20;0.20;;;;;;;16.03;66.37;100515.66;5055410;28;20033;-62
2023/03/20 08:33:57;;;;;;;0.20;0.20;;;;;;;16.55;64.92;100507.09;5055062;28;20490;-62
2023/03/20 08:36:26;;;;;;;0.20;0.20;;;;;;;16.64;65.94;100502.72;5054949;28;20029;-62
2023/03/20 08:38:52;;;;;;;0.20;0.20;;;;;;;17.10;64.21;100512.47;5055226;28;20025;-64
2023/03/20 08:41:18;;;;;;;0.20;0.20;;;;;;;17.33;60.82;100514.94;5055493;28;20117;-64
2023/03/20 08:43:43;;;;;;;0.20;0.20;;;;;;;16.94;61.80;100515.69;5054803;28;20022;-65
2023/03/20 08:46:14;;;;;;;0.20;0.20;;;;;;;16.99;62.32;100518.06;5055153;28;20033;-64
2023/03/20 08:48:40;;;;;;;0.20;0.20;;;;;;;16.60;63.69;100512.31;5054776;28;20086;-64
2023/03/20 08:51:09;;;;;;;0.20;0.20;;;;;;;16.44;65.26;100519.09;5055211;28;20113;-63
2023/03/20 08:53:35;;;;;;;0.20;0.20;;;;;;;16.41;63.73;100516.28;5054970;28;20056;-63
2023/03/20 08:56:04;;;;;;;0.20;0.20;;;;;;;16.33;64.94;100521.03;5054716;28;20029;-64
2023/03/20 08:58:32;;;;;;;0.20;0.20;;;;;;;16.58;64.43;100520.34;5055369;28;20029;-64
2023/03/20 09:01:07;;;;;;;0.20;0.20;;;;;;;16.68;63.47;100525.22;5077873;28;20479;-63
2023/03/20 09:03:33;;;;;;;0.20;0.20;;;;;;;16.81;62.62;100522.88;5094996;28;20032;-64
2023/03/20 09:05:58;;;;;;;0.20;0.20;;;;;;;16.93;62.27;100520.47;5077878;28;20497;-63
2023/03/20 09:08:26;;;;;;;0.20;0.20;;;;;;;16.83;62.86;100531.69;5078409;28;20036;-63
2023/03/20 09:10:57;;;;;;;0.20;0.20;;;;;;;17.13;62.46;100525.75;5077723;28;20118;-64
2023/03/20 09:13:24;;;;;;;0.20;0.20;;;;;;;17.17;61.73;100518.94;5077707;28;20051;-64
2023/03/20 09:15:53;;;;;;;0.20;0.20;;;;;;;16.71;62.25;100518.81;5076929;28;20023;-64
2023/03/20 09:18:21;;;;;;;0.20;0.20;;;;;;;16.65;62.79;100523.19;5094620;28;20444;-64
2023/03/20 09:20:50;;;;;;;0.20;0.20;;;;;;;16.71;64.09;100518.81;5077531;28;20440;-63
2023/03/20 09:23:15;;;;;;;0.20;0.20;;;;;;;16.80;63.34;100521.25;5077839;28;20097;-64
2023/03/20 09:25:41;;;;;;;0.20;0.20;;;;;;;16.90;63.78;100526.09;5077267;28;20502;-64
2023/03/20 09:28:11;;;;;;;0.20;0.20;;;;;;;16.75;64.96;100520.44;5060503;28;20047;-63
2023/03/20 09:30:47;;;;;;;0.20;0.20;;;;;;;16.71;65.39;100528.03;5077222;28;20028;-63
2023/03/20 09:33:17;;;;;;;0.20;0.20;;;;;;;16.80;65.32;100521.25;5094176;28;20062;-64
2023/03/20 09:35:47;;;;;;;0.20;0.20;;;;;;;16.79;64.29;100522.47;5077724;28;20115;-65
2023/03/20 09:38:16;;;;;;;0.20;0.20;;;;;;;16.60;65.40;100527.16;5077348;28;20024;-63
2023/03/20 09:41:00;;;;;;;0.22;0.22;;;;;;;16.27;67.93;100527.44;5077934;28;20419;-64
2023/03/20 09:43:43;;;;;;;0.20;0.20;;;;;;;16.23;68.17;100530.22;5076938;28;20123;-63
2023/03/20 09:46:34;;;;;;;0.20;0.20;;;;;;;16.06;69.28;100537.34;5077786;28;20481;-63
2023/03/20 09:49:14;;;;;;;0.20;0.20;;;;;;;16.18;68.61;100530.59;5077561;28;20471;-63
2023/03/20 09:51:57;;;;;;;0.20;0.20;;;;;;;16.05;69.85;100527.31;5093842;28;20024;-62
2023/03/20 09:54:39;;;;;;;0.20;0.20;;;;;;;15.79;72.07;100535.97;5093963;28;20032;-63
2023/03/20 09:57:11;;;;;;;0.20;0.20;;;;;;;15.89;72.83;100535.22;5093963;28;20059;-63
2023/03/20 09:59:39;;;;;;;0.20;0.20;;;;;;;15.64;72.71;100523.81;5063704;28;20091;-62
2023/03/20 10:02:18;;;;;;;0.20;0.20;;;;;;;15.74;72.92;100522.28;5053540;28;20115;-62
2023/03/20 10:04:47;;;;;;;0.20;0.20;;;;;;;16.11;70.68;100510.91;5053592;28;20037;-62
2023/03/20 10:07:17;;;;;;;0.20;0.20;;;;;;;15.84;71.45;100499.91;5053457;28;20115;-63
2023/03/20 10:09:44;;;;;;;0.20;0.20;;;;;;;16.41;69.98;100505.03;5053732;28;20039;-62
2023/03/20 10:12:48;;;;;;;0.20;0.20;;;;;;;16.36;68.73;100494.19;5053743;28;20083;-62
2023/03/20 10:15:38;;;;;;;0.20;0.20;;;;;;;16.69;68.24;100481.88;5048824;28;20407;-64
2023/03/20 10:18:11;;;;;;;0.20;0.20;;;;;;;16.91;66.75;100479.94;5052264;28;20090;-62
2023/03/20 10:20:44;;;;;;;0.20;0.20;;;;;;;16.63;66.59;100467.41;5053298;28;20468;-63
2023/03/20 10:23:17;;;;;;;0.20;0.20;;;;;;;16.84;67.12;100471.50;5053256;28;20032;-64
2023/03/20 10:25:52;;;;;;;0.20;0.20;;;;;;;16.95;65.60;100480.75;5053279;28;20349;-64
2023/03/20 10:28:30;;;;;;;0.20;0.20;;;;;;;16.65;64.67;100470.59;5052285;28;20032;-64
2023/03/20 10:31:00;;;;;;;0.20;0.20;;;;;;;16.68;64.13;100464.22;5052856;28;20071;-62
2023/03/20 10:33:30;;;;;;;0.20;0.20;;;;;;;16.57;64.40;100477.41;5052839;28;20033;-64
2023/03/20 10:36:01;;;;;;;0.20;0.20;;;;;;;16.73;62.82;100465.84;5054014;28;20108;-65
2023/03/20 10:38:55;;;;;;;0.20;0.20;;;;;;;17.16;62.41;100435.78;5052940;28;20476;-64
2023/03/20 10:41:28;;;;;;;0.20;0.20;;;;;;;16.95;59.09;100404.88;5053930;28;20545;-62
2023/03/20 10:43:58;;;;;;;0.20;0.20;;;;;;;16.91;59.83;100381.56;5052697;28;20526;-62
2023/03/20 10:46:37;;;;;;;0.20;0.20;;;;;;;17.11;56.66;100398.84;5052848;28;20031;-64
2023/03/20 10:49:25;;;;;;;0.20;0.20;;;;;;;17.27;56.47;100402.84;5052575;28;20033;-63
2023/03/20 10:51:58;;;;;;;0.20;0.20;;;;;;;17.08;55.64;100403.25;5040155;28;20538;-62
2023/03/20 10:54:32;;;;;;;0.20;0.20;;;;;;;17.65;54.00;100419.25;5052402;28;20036;-63
2023/03/20 10:57:03;;;;;;;0.20;0.20;;;;;;;17.88;52.78;100422.44;5052396;28;20036;-63
2023/03/20 10:59:43;;;;;;;0.20;0.20;;;;;;;18.02;52.82;100424.41;5061616;28;20052;-64
2023/03/20 11:02:13;;;;;;;0.20;0.20;;;;;;;18.36;52.45;100413.38;5072350;28;20029;-65
2023/03/20 11:04:39;;;;;;;0.20;0.20;;;;;;;18.54;52.87;100416.91;5073063;28;20048;-63
2023/03/20 11:07:20;;;;;;;0.20;0.20;;;;;;;18.44;53.50;100411.34;5072857;28;20455;-64
2023/03/20 11:10:06;;;;;;;0.20;0.20;;;;;;;18.60;53.69;100411.66;5072174;28;20032;-64
2023/03/20 11:12:36;;;;;;;0.20;0.20;;;;;;;18.95;51.04;100396.50;5071769;28;20491;-64
2023/03/20 11:15:29;;;;;;;0.20;0.20;;;;;;;18.98;50.31;100400.53;5072810;28;20036;-64
2023/03/20 11:17:57;;;;;;;0.20;0.20;;;;;;;19.13;51.42;100404.84;5072791;28;20063;-63
2023/03/20 11:20:24;;;;;;;0.20;0.20;;;;;;;18.98;51.07;100400.53;5072523;28;20031;-64
2023/03/20 11:23:15;;;;;;;0.20;0.20;;;;;;;18.15;52.31;100407.84;5072464;28;20036;-64
2023/03/20 11:25:56;;;;;;;0.20;0.20;;;;;;;17.71;54.93;100412.81;5072113;28;20082;-63
2023/03/20 11:28:40;;;;;;;0.20;0.20;;;;;;;17.75;55.67;100416.44;5073572;28;20028;-64
2023/03/20 11:31:24;;;;;;;0.20;0.20;;;;;;;17.23;56.88;100410.47;5071996;28;20025;-62
2023/03/20 11:34:08;;;;;;;0.20;0.20;;;;;;;16.85;59.78;100386.78;5073648;28;20372;-64
2023/03/20 11:36:40;;;;;;;0.20;0.20;;;;;;;16.73;60.17;100381.56;5072476;28;20193;-63
2023/03/20 11:39:15;;;;;;;0.20;0.20;;;;;;;16.39;62.40;100400.72;5074849;28;20027;-62
2023/03/20 11:41:48;;;;;;;0.20;0.20;;;;;;;16.32;65.07;100393.09;5076529;28;20074;-63
2023/03/20 11:44:26;;;;;;;0.22;0.22;;;;;;;15.63;71.45;100388.38;5076938;28;20025;-63